sensor_id;sensor_type;location;lat;lon;timestamp;pressure;altitude;pressure_sealevel;temperature;humidity
46598;BME280;32318;48.858;8.252;2023-04-09T00:06:26;100968.72;;;9.40;65.05
46598;BME280;32318;48.858;8.252;2023-04-09T00:14:26;100966.31;;;9.37;65.31
46598;BME280;32318;48.858;8.252;2023-04-09T00:22:27;100955.81;;;9.25;65.62
46598;BME280;32318;48.858;8.252;2023-04-09T00:30:29;100955.09;;;9.23;65.78
46598;BME280;32318;48.858;8.252;2023-04-09T00:38:30;100954.13;;;9.15;66.36
46598;BME280;32318;48.858;8.252;2023-04-09T00:46:31;100958.16;;;9.19;66.44
46598;BME280;32318;48.858;8.252;2023-04-09T00:54:31;100955.50;;;9.09;66.85
46598;BME280;32318;48.858;8.252;2023-04-09T01:02:33;100951.56;;;9.13;66.71
46598;BME280;32318;48.858;8.252;2023-04-09T01:11:03;100950.00;;;9.01;67.43
46598;BME280;32318;48.858;8.252;2023-04-09T01:19:18;100955.19;;;8.92;68.07
46598;BME280;32318;48.858;8.252;2023-04-09T01:27:23;100948.84;;;8.93;68.27
46598;BME280;32318;48.858;8.252;2023-04-09T01:35:27;100949.81;;;8.83;68.45
46598;BME280;32318;48.858;8.252;2023-04-09T01:43:29;100952.63;;;8.81;68.49
46598;BME280;32318;48.858;8.252;2023-04-09T01:51:31;100956.78;;;8.74;68.67
46598;BME280;32318;48.858;8.252;2023-04-09T01:59:32;100964.31;;;8.69;68.25
46598;BME280;32318;48.858;8.252;2023-04-09T02:07:43;100967.13;;;8.67;68.91
46598;BME280;32318;48.858;8.252;2023-04-09T02:15:45;100967.44;;;8.74;68.60
46598;BME280;32318;48.858;8.252;2023-04-09T02:23:46;100961.41;;;8.72;68.14
46598;BME280;32318;48.858;8.252;2023-04-09T02:31:46;100948.06;;;8.62;68.92
46598;BME280;32318;48.858;8.252;2023-04-09T02:39:46;100952.34;;;8.53;68.87
46598;BME280;32318;48.858;8.252;2023-04-09T02:47:46;100954.94;;;8.43;69.55
46598;BME280;32318;48.858;8.252;2023-04-09T02:55:47;100961.97;;;8.44;70.33
46598;BME280;32318;48.858;8.252;2023-04-09T03:03:47;100956.13;;;8.51;70.50
46598;BME280;32318;48.858;8.252;2023-04-09T03:11:47;100941.84;;;8.52;70.63
46598;BME280;32318;48.858;8.252;2023-04-09T03:19:47;100944.63;;;8.50;70.68
46598;BME280;32318;48.858;8.252;2023-04-09T03:27:48;100942.56;;;8.32;70.88
46598;BME280;32318;48.858;8.252;2023-04-09T03:35:48;100939.44;;;8.27;71.62
46598;BME280;32318;48.858;8.252;2023-04-09T03:43:48;100946.09;;;8.12;71.59
46598;BME280;32318;48.858;8.252;2023-04-09T03:51:48;100948.28;;;8.07;72.22
46598;BME280;32318;48.858;8.252;2023-04-09T03:59:49;100957.19;;;7.96;71.42
46598;BME280;32318;48.858;8.252;2023-04-09T04:07:49;100944.94;;;7.83;71.67
46598;BME280;32318;48.858;8.252;2023-04-09T04:15:49;100949.47;;;7.72;71.69
46598;BME280;32318;48.858;8.252;2023-04-09T04:23:50;100955.75;;;7.71;71.54
46598;BME280;32318;48.858;8.252;2023-04-09T04:31:50;100957.28;;;7.52;71.30
46598;BME280;32318;48.858;8.252;2023-04-09T04:39:50;100965.13;;;7.42;71.68
46598;BME280;32318;48.858;8.252;2023-04-09T04:47:51;100958.56;;;7.25;71.88
46598;BME280;32318;48.858;8.252;2023-04-09T04:55:51;100968.09;;;7.16;72.07
46598;BME280;32318;48.858;8.252;2023-04-09T05:03:52;100964.16;;;7.11;71.97
46598;BME280;32318;48.858;8.252;2023-04-09T05:11:52;100974.19;;;6.96;72.01
46598;BME280;32318;48.858;8.252;2023-04-09T05:19:53;100978.63;;;6.95;72.26
46598;BME280;32318;48.858;8.252;2023-04-09T05:27:53;100990.84;;;6.86;72.20
46598;BME280;32318;48.858;8.252;2023-04-09T05:35:54;100993.88;;;6.93;72.25
46598;BME280;32318;48.858;8.252;2023-04-09T05:43:55;100989.38;;;7.05;70.69
46598;BME280;32318;48.858;8.252;2023-04-09T05:51:55;100991.81;;;7.52;70.61
46598;BME280;32318;48.858;8.252;2023-04-09T05:59:55;100988.06;;;8.29;67.57
46598;BME280;32318;48.858;8.252;2023-04-09T06:07:56;100995.78;;;8.85;65.41
46598;BME280;32318;48.858;8.252;2023-04-09T06:15:56;100991.03;;;9.39;63.60
46598;BME280;32318;48.858;8.252;2023-04-09T06:23:56;101000.56;;;9.32;63.74
46598;BME280;32318;48.858;8.252;2023-04-09T06:31:56;101005.41;;;9.07;64.31
46598;BME280;32318;48.858;8.252;2023-04-09T06:39:57;100996.59;;;8.75;65.92
46598;BME280;32318;48.858;8.252;2023-04-09T06:47:57;101006.28;;;8.34;67.60
46598;BME280;32318;48.858;8.252;2023-04-09T06:55:58;101005.38;;;8.45;67.68
46598;BME280;32318;48.858;8.252;2023-04-09T07:03:58;101006.75;;;8.60;67.81
46598;BME280;32318;48.858;8.252;2023-04-09T07:11:58;101011.19;;;8.81;67.85
46598;BME280;32318;48.858;8.252;2023-04-09T07:19:58;101011.78;;;8.94;67.18
46598;BME280;32318;48.858;8.252;2023-04-09T07:27:59;101016.06;;;9.17;66.97
46598;BME280;32318;48.858;8.252;2023-04-09T07:35:59;101013.31;;;9.38;66.00
46598;BME280;32318;48.858;8.252;2023-04-09T07:43:59;101020.66;;;9.55;65.87
